Time;durP1;ratioP1;P1;durP2;ratioP2;P2;SDS_P1;SDS_P2;PMS_P1;PMS_P2;Temp;Humidity;BMP_temperature;BMP_pressure;BME280_temperature;BME280_humidity;BME280_pressure;Samples;Min_cycle;Max_cycle;Signal;HPM_P1;HPM_P2
2022/10/18 00:01:52;;;;;;;;;;;;;;;13.66;78.26;101351.45;85958;1294;79767;-57
2022/10/18 00:03:59;;;;;;;;;;;;;;;13.68;78.31;101351.21;85995;1297;82824;-58
2022/10/18 00:06:10;;;;;;;;;;;;;;;13.69;78.28;101347.34;86037;1297;97552;-55
2022/10/18 00:08:18;;;;;;;;;;;;;;;13.70;78.39;101346.69;86016;1298;88284;-57
2022/10/18 00:10:26;;;;;;;;;;;;;;;13.72;78.31;101344.80;85997;1299;93979;-59
2022/10/18 00:12:34;;;;;;;;;;;;;;;13.73;78.37;101343.91;85983;1291;81944;-59
2022/10/18 00:14:41;;;;;;;;;;;;;;;13.74;78.33;101340.54;86018;1297;82530;-60
2022/10/18 00:16:49;;;;;;;;;;;;;;;13.77;78.39;101338.27;86004;1297;99606;-59
2022/10/18 00:18:56;;;;;;;;;;;;;;;13.84;78.39;101334.54;86039;1291;87792;-59
2022/10/18 00:21:04;;;;;;;;;;;;;;;13.90;78.32;101331.31;86046;1299;95180;-60
2022/10/18 00:23:11;;;;;;;;;;;;;;;13.95;78.24;101331.05;85991;1299;80594;-62
2022/10/18 00:25:20;;;;;;;;;;;;;;;13.98;78.16;101329.92;86000;1294;81945;-59
2022/10/18 00:27:28;;;;;;;;;;;;;;;13.99;78.11;101327.05;86024;1298;99309;-59
2022/10/18 00:29:35;;;;;;;;;;;;;;;14.02;78.09;101328.52;86016;1293;87736;-60
2022/10/18 00:31:46;;;;;;;;;;;;;;;14.04;77.97;101325.81;86012;1297;93872;-59
2022/10/18 00:33:55;;;;;;;;;;;;;;;14.04;77.84;101323.97;86000;1297;80437;-57
2022/10/18 00:36:03;;;;;;;;;;;;;;;14.06;77.89;101324.63;85980;1294;82060;-56
2022/10/18 00:38:10;;;;;;;;;;;;;;;14.09;77.76;101326.02;85993;1291;99464;-57
2022/10/18 00:40:20;;;;;;;;;;;;;;;14.10;77.71;101324.05;85997;1294;88490;-58
2022/10/18 00:42:30;;;;;;;;;;;;;;;14.10;77.67;101319.51;85977;1299;94965;-60
2022/10/18 00:45:07;;;;;;;;;;;;;;;14.11;77.59;101321.39;86017;1294;82149;-57
2022/10/18 00:47:16;;;;;;;;;;;;;;;14.13;77.48;101318.08;85987;1292;80695;-57
2022/10/18 00:49:27;;;;;;;;;;;;;;;14.15;77.51;101312.55;85975;1292;99639;-58
2022/10/18 00:51:38;;;;;;;;;;;;;;;14.12;77.44;101305.85;86000;1291;89384;-56
2022/10/18 00:53:48;;;;;;;;;;;;;;;14.09;77.37;101301.35;85968;1292;95372;-58
2022/10/18 00:55:57;;;;;;;;;;;;;;;14.13;77.35;101305.28;85995;1291;82746;-55
2022/10/18 00:58:04;;;;;;;;;;;;;;;14.14;77.31;101301.70;86043;1294;80389;-57
2022/10/18 01:00:13;;;;;;;;;;;;;;;14.12;77.24;101297.71;86022;1294;99655;-56
2022/10/18 01:02:20;;;;;;;;;;;;;;;14.10;77.15;101299.61;86025;1291;89456;-56
2022/10/18 01:04:28;;;;;;;;;;;;;;;14.08;77.10;101296.04;85995;1294;92992;-59
2022/10/18 01:06:42;;;;;;;;;;;;;;;14.04;77.04;101290.09;86040;1291;80913;-59
2022/10/18 01:09:02;;;;;;;;;;;;;;;13.97;77.03;101292.41;86058;1292;82493;-62
2022/10/18 01:11:28;;;;;;;;;;;;;;;13.92;77.05;101293.05;86026;1292;97116;-58
2022/10/18 01:13:49;;;;;;;;;;;;;;;13.84;77.08;101288.27;86027;1293;89160;-56
2022/10/18 01:16:01;;;;;;;;;;;;;;;13.80;77.07;101285.97;85988;1298;94573;-59
2022/10/18 01:18:14;;;;;;;;;;;;;;;13.75;77.07;101281.23;86018;1294;79762;-60
2022/10/18 01:20:57;;;;;;;;;;;;;;;13.69;77.14;101273.79;85995;1299;82629;-57
2022/10/18 01:23:08;;;;;;;;;;;;;;;13.65;77.11;101268.51;86030;1299;98281;-57
2022/10/18 01:25:30;;;;;;;;;;;;;;;13.60;77.11;101263.27;86007;1293;89312;-58
2022/10/18 01:27:55;;;;;;;;;;;;;;;13.61;77.22;101264.69;86008;1294;95383;-56
2022/10/18 01:30:35;;;;;;;;;;;;;;;13.62;77.19;101266.67;86009;1294;80917;-59
2022/10/18 01:32:49;;;;;;;;;;;;;;;13.63;77.16;101267.14;86014;1293;83113;-59
2022/10/18 01:35:00;;;;;;;;;;;;;;;13.64;77.16;101266.86;86021;1292;99174;-59
2022/10/18 01:37:09;;;;;;;;;;;;;;;13.66;77.16;101261.50;86017;1293;88606;-60
2022/10/18 01:39:20;;;;;;;;;;;;;;;13.67;77.10;101262.08;85990;1298;95187;-56
2022/10/18 01:41:29;;;;;;;;;;;;;;;13.70;77.07;101261.80;85991;1297;82208;-58
2022/10/18 01:43:37;;;;;;;;;;;;;;;13.76;76.90;101260.25;86047;1292;81337;-57
2022/10/18 01:45:44;;;;;;;;;;;;;;;13.77;76.94;101258.77;86050;1291;98940;-60
2022/10/18 01:47:52;;;;;;;;;;;;;;;13.78;76.75;101262.55;86046;1292;87792;-60
2022/10/18 01:50:04;;;;;;;;;;;;;;;13.78;76.83;101262.41;86038;1292;92575;-58
2022/10/18 01:52:16;;;;;;;;;;;;;;;13.78;76.72;101263.46;86080;1291;82736;-56
2022/10/18 01:54:30;;;;;;;;;;;;;;;13.78;76.70;101261.42;86069;1297;82953;-57
2022/10/18 01:56:43;;;;;;;;;;;;;;;13.81;76.57;101264.38;86057;1292;99376;-57
2022/10/18 01:59:01;;;;;;;;;;;;;;;13.80;76.53;101263.11;86046;1291;87680;-58
2022/10/18 02:01:11;;;;;;;;;;;;;;;13.80;76.51;101266.25;85986;1294;94854;-60
2022/10/18 02:03:22;;;;;;;;;;;;;;;13.79;76.48;101264.42;86057;1294;80568;-59
2022/10/18 02:05:33;;;;;;;;;;;;;;;13.79;76.45;101269.45;86034;1291;83029;-52
2022/10/18 02:07:43;;;;;;;;;;;;;;;13.74;76.36;101263.92;85969;1292;98901;-56
2022/10/18 02:09:56;;;;;;;;;;;;;;;13.68;76.39;101264.50;86038;1297;88803;-60
2022/10/18 02:12:07;;;;;;;;;;;;;;;13.65;76.37;101270.68;86013;1294;95357;-59
2022/10/18 02:14:16;;;;;;;;;;;;;;;13.62;76.38;101269.09;85998;1294;79582;-59
2022/10/18 02:16:41;;;;;;;;;;;;;;;13.58;76.37;101271.30;86040;1294;82529;-59
2022/10/18 02:18:50;;;;;;;;;;;;;;;13.52;76.36;101272.47;86020;1299;98666;-59
2022/10/18 02:21:02;;;;;;;;;;;;;;;13.47;76.37;101269.13;86004;1297;89308;-56
2022/10/18 02:23:12;;;;;;;;;;;;;;;13.41;76.41;101270.25;86015;1291;95399;-56
2022/10/18 02:25:21;;;;;;;;;;;;;;;13.36;76.44;101273.52;86008;1292;80571;-59
2022/10/18 02:27:30;;;;;;;;;;;;;;;13.30;76.48;101269.59;86057;1291;82670;-58
2022/10/18 02:29:38;;;;;;;;;;;;;;;13.24;76.59;101268.09;86036;1294;99661;-60
2022/10/18 02:31:48;;;;;;;;;;;;;;;13.19;76.59;101262.44;86043;1294;89156;-60
2022/10/18 02:33:58;;;;;;;;;;;;;;;13.15;76.66;101266.02;86057;1294;95546;-59
2022/10/18 02:36:11;;;;;;;;;;;;;;;13.12;76.80;101264.42;86057;1294;79015;-56
2022/10/18 02:38:19;;;;;;;;;;;;;;;13.09;76.83;101261.48;86051;1293;81748;-57
2022/10/18 02:40:27;;;;;;;;;;;;;;;13.07;76.94;101263.11;86049;1293;100095;-57
2022/10/18 02:42:38;;;;;;;;;;;;;;;13.03;76.84;101265.82;86033;1293;88080;-56
2022/10/18 02:44:45;;;;;;;;;;;;;;;12.98;76.90;101261.83;86047;1299;93499;-56
2022/10/18 02:46:53;;;;;;;;;;;;;;;12.96;77.11;101260.96;86018;1299;80173;-57
2022/10/18 02:49:02;;;;;;;;;;;;;;;12.95;77.14;101257.82;85995;1293;82457;-59
2022/10/18 02:51:10;;;;;;;;;;;;;;;12.96;77.18;101261.96;85996;1299;98345;-57
2022/10/18 02:53:17;;;;;;;;;;;;;;;12.97;77.36;101262.52;86013;1292;88192;-59
2022/10/18 02:55:26;;;;;;;;;;;;;;;13.02;77.30;101266.61;85984;1294;95814;-60
2022/10/18 02:57:33;;;;;;;;;;;;;;;13.03;77.26;101271.38;85999;1294;82109;-59
2022/10/18 02:59:40;;;;;;;;;;;;;;;13.02;77.41;101269.14;86027;1291;81620;-58
2022/10/18 03:01:47;;;;;;;;;;;;;;;13.03;77.32;101267.83;86002;1292;99068;-60
2022/10/18 03:03:55;;;;;;;;;;;;;;;13.06;77.43;101270.67;85990;1298;88467;-59
2022/10/18 03:06:02;;;;;;;;;;;;;;;13.09;77.40;101271.94;86007;1293;93232;-61
2022/10/18 03:08:09;;;;;;;;;;;;;;;13.10;77.29;101266.60;85969;1292;81776;-60
2022/10/18 03:10:15;;;;;;;;;;;;;;;13.10;77.37;101266.36;86024;1291;82154;-59
2022/10/18 03:12:22;;;;;;;;;;;;;;;13.09;77.33;101266.84;85990;1294;99808;-61
2022/10/18 03:14:30;;;;;;;;;;;;;;;13.08;77.35;101263.90;86020;1293;86709;-57
2022/10/18 03:16:38;;;;;;;;;;;;;;;13.11;77.30;101266.48;86027;1294;95108;-52
2022/10/18 03:18:45;;;;;;;;;;;;;;;13.12;77.26;101268.48;86027;1294;81846;-56
2022/10/18 03:20:52;;;;;;;;;;;;;;;13.17;77.23;101263.79;86014;1293;80490;-60
2022/10/18 03:22:59;;;;;;;;;;;;;;;13.19;77.14;101263.73;86000;1299;99109;-59
2022/10/18 03:25:07;;;;;;;;;;;;;;;13.21;77.24;101262.81;86055;1294;87312;-57
2022/10/18 03:27:14;;;;;;;;;;;;;;;13.23;77.13;101265.05;85986;1294;93497;-57
2022/10/18 03:29:21;;;;;;;;;;;;;;;13.22;77.16;101262.77;86006;1293;80618;-55
2022/10/18 03:31:28;;;;;;;;;;;;;;;13.24;77.12;101263.98;86001;1294;81795;-56
2022/10/18 03:33:35;;;;;;;;;;;;;;;13.23;77.07;101266.33;86007;1294;99631;-58
2022/10/18 03:35:44;;;;;;;;;;;;;;;13.19;77.05;101261.90;86034;1288;87862;-59
2022/10/18 03:37:51;;;;;;;;;;;;;;;13.18;77.02;101253.54;85990;1294;94645;-59
2022/10/18 03:40:01;;;;;;;;;;;;;;;13.17;76.96;101249.27;85985;1293;79361;-60
2022/10/18 03:42:08;;;;;;;;;;;;;;;13.18;76.91;101251.33;85994;1299;80604;-59
2022/10/18 03:44:15;;;;;;;;;;;;;;;13.13;76.94;101251.91;85943;1294;99120;-57
2022/10/18 03:46:22;;;;;;;;;;;;;;;13.09;76.92;101253.76;85971;1294;89206;-53
2022/10/18 03:48:29;;;;;;;;;;;;;;;13.03;76.87;101251.61;85985;1294;93182;-58
2022/10/18 03:50:36;;;;;;;;;;;;;;;12.98;76.88;101256.95;85971;1297;80928;-59
2022/10/18 03:52:43;;;;;;;;;;;;;;;12.92;76.84;101263.23;85991;1299;81947;-61
2022/10/18 03:54:52;;;;;;;;;;;;;;;12.87;76.91;101264.10;85950;1297;98399;-57
2022/10/18 03:56:59;;;;;;;;;;;;;;;12.81;76.97;101266.09;86002;1297;87242;-57
2022/10/18 03:59:06;;;;;;;;;;;;;;;12.77;76.97;101265.65;85994;1294;95361;-57
2022/10/18 04:01:16;;;;;;;;;;;;;;;12.72;77.01;101268.39;86000;1298;80067;-56
2022/10/18 04:03:23;;;;;;;;;;;;;;;12.68;77.08;101267.86;85997;1292;82715;-57
2022/10/18 04:05:30;;;;;;;;;;;;;;;12.63;77.06;101274.11;86006;1291;99645;-56
2022/10/18 04:07:39;;;;;;;;;;;;;;;12.56;77.22;101270.05;86022;1284;87338;-57
2022/10/18 04:09:46;;;;;;;;;;;;;;;12.50;77.24;101268.98;86007;1293;94129;-60
2022/10/18 04:11:53;;;;;;;;;;;;;;;12.44;77.19;101266.04;86034;1284;79273;-60
2022/10/18 04:14:00;;;;;;;;;;;;;;;12.36;77.34;101272.00;85999;1284;81528;-58
2022/10/18 04:16:07;;;;;;;;;;;;;;;12.30;77.44;101273.27;86008;1293;99350;-56
2022/10/18 04:18:14;;;;;;;;;;;;;;;12.25;77.49;101271.83;85998;1292;87429;-57
2022/10/18 04:20:21;;;;;;;;;;;;;;;12.19;77.57;101271.80;85980;1297;94236;-59
2022/10/18 04:22:29;;;;;;;;;;;;;;;12.14;77.59;101275.98;86003;1294;82380;-59
2022/10/18 04:24:38;;;;;;;;;;;;;;;12.10;77.76;101275.84;85988;1294;82571;-59
2022/10/18 04:26:45;;;;;;;;;;;;;;;12.07;77.81;101281.28;85986;1291;98203;-60
2022/10/18 04:28:53;;;;;;;;;;;;;;;12.05;77.95;101280.03;85979;1293;89017;-58
2022/10/18 04:30:59;;;;;;;;;;;;;;;12.03;78.08;101278.58;85947;1292;94999;-52
2022/10/18 04:33:06;;;;;;;;;;;;;;;12.02;78.18;101276.02;85985;1299;81555;-57
2022/10/18 04:35:13;;;;;;;;;;;;;;;12.03;78.19;101274.29;86005;1293;82034;-58
2022/10/18 04:37:20;;;;;;;;;;;;;;;12.04;78.36;101274.35;85957;1294;99764;-58
2022/10/18 04:39:29;;;;;;;;;;;;;;;12.05;78.46;101275.84;85997;1293;88571;-59
2022/10/18 04:41:37;;;;;;;;;;;;;;;12.04;78.50;101277.80;85988;1294;94968;-59
2022/10/18 04:43:44;;;;;;;;;;;;;;;12.05;78.61;101278.75;86002;1298;80942;-60
2022/10/18 04:45:53;;;;;;;;;;;;;;;12.06;78.63;101276.30;85977;1291;81663;-62
2022/10/18 04:48:00;;;;;;;;;;;;;;;12.08;78.59;101278.37;85996;1294;97491;-57
2022/10/18 04:50:08;;;;;;;;;;;;;;;12.12;78.62;101279.02;85636;1293;518534;-57
2022/10/18 04:52:16;;;;;;;;;;;;;;;12.15;78.70;101279.73;86060;1292;95568;-57
2022/10/18 04:54:22;;;;;;;;;;;;;;;12.18;78.64;101281.73;86010;1294;82125;-59
2022/10/18 04:56:29;;;;;;;;;;;;;;;12.21;78.69;101279.16;86018;1294;81923;-60
2022/10/18 04:58:37;;;;;;;;;;;;;;;12.25;78.60;101281.98;86027;1291;100015;-59
2022/10/18 05:00:46;;;;;;;;;;;;;;;12.29;78.62;101283.27;85995;1299;89117;-57
2022/10/18 05:02:57;;;;;;;;;;;;;;;12.29;78.51;101282.05;86025;1293;94022;-56
2022/10/18 05:05:08;;;;;;;;;;;;;;;12.28;78.54;101285.05;85987;1293;81191;-57
2022/10/18 05:07:16;;;;;;;;;;;;;;;12.30;78.51;101282.77;85991;1292;82446;-58
2022/10/18 05:09:26;;;;;;;;;;;;;;;12.31;78.45;101284.27;85992;1297;100133;-57
2022/10/18 05:11:36;;;;;;;;;;;;;;;12.31;78.43;101287.77;85968;1299;88743;-57
2022/10/18 05:13:42;;;;;;;;;;;;;;;12.30;78.40;101283.31;85961;1294;93898;-57
2022/10/18 05:15:49;;;;;;;;;;;;;;;12.31;78.37;101285.36;85961;1294;80341;-57
2022/10/18 05:17:59;;;;;;;;;;;;;;;12.33;78.48;101289.66;85982;1297;82121;-56
2022/10/18 05:20:08;;;;;;;;;;;;;;;12.36;78.44;101286.83;85981;1294;97115;-57
2022/10/18 05:22:16;;;;;;;;;;;;;;;12.38;78.37;101290.91;85892;1294;88501;-57
2022/10/18 05:24:23;;;;;;;;;;;;;;;12.40;78.36;101293.40;85964;1299;94210;-54
2022/10/18 05:26:29;;;;;;;;;;;;;;;12.42;78.30;101292.57;86003;1294;80351;-58
2022/10/18 05:28:37;;;;;;;;;;;;;;;12.43;78.34;101291.97;86005;1297;82206;-60
2022/10/18 05:30:45;;;;;;;;;;;;;;;12.44;78.29;101291.41;86017;1297;98688;-57
2022/10/18 05:32:52;;;;;;;;;;;;;;;12.50;78.23;101299.35;86003;1299;88980;-57
2022/10/18 05:35:01;;;;;;;;;;;;;;;12.48;78.24;101298.30;86005;1292;94404;-59
2022/10/18 05:37:09;;;;;;;;;;;;;;;12.47;78.17;101300.38;86030;1284;80564;-59
2022/10/18 05:39:17;;;;;;;;;;;;;;;12.46;78.20;101303.56;85958;1301;84579;-60
2022/10/18 05:41:24;;;;;;;;;;;;;;;12.45;78.23;101308.14;86019;1294;97769;-59
2022/10/18 05:43:33;;;;;;;;;;;;;;;12.46;78.21;101309.19;86028;1297;88700;-58
2022/10/18 05:45:40;;;;;;;;;;;;;;;12.46;78.13;101307.02;86008;1293;93636;-57
2022/10/18 05:47:47;;;;;;;;;;;;;;;12.46;78.22;101311.83;86004;1294;79584;-57
2022/10/18 05:49:54;;;;;;;;;;;;;;;12.42;78.17;101310.80;85990;1292;82850;-50
2022/10/18 05:52:01;;;;;;;;;;;;;;;12.45;78.25;101312.34;86011;1297;99849;-57
2022/10/18 05:54:10;;;;;;;;;;;;;;;12.50;78.38;101310.89;86015;1297;87658;-58
2022/10/18 05:56:17;;;;;;;;;;;;;;;12.54;78.28;101309.98;85962;1294;93482;-57
2022/10/18 05:58:26;;;;;;;;;;;;;;;12.59;78.37;101311.08;85997;1284;80162;-58
2022/10/18 06:00:37;;;;;;;;;;;;;;;12.65;78.30;101314.48;85986;1294;81102;-58
2022/10/18 06:02:44;;;;;;;;;;;;;;;12.70;78.33;101313.66;85994;1293;98608;-56
2022/10/18 06:04:51;;;;;;;;;;;;;;;12.75;78.37;101317.92;86030;1292;88971;-56
2022/10/18 06:07:01;;;;;;;;;;;;;;;12.82;78.44;101319.30;86015;1284;95045;-57
2022/10/18 06:09:09;;;;;;;;;;;;;;;12.93;78.40;101323.88;86033;1293;80712;-57
2022/10/18 06:11:18;;;;;;;;;;;;;;;13.05;78.25;101322.67;86011;1297;81166;-50
2022/10/18 06:13:27;;;;;;;;;;;;;;;13.12;78.36;101322.23;86034;1294;99564;-57
2022/10/18 06:15:34;;;;;;;;;;;;;;;13.18;78.36;101324.59;86012;1299;88526;-56
2022/10/18 06:17:41;;;;;;;;;;;;;;;13.25;78.33;101325.95;86040;1294;95492;-57
2022/10/18 06:19:48;;;;;;;;;;;;;;;13.28;78.31;101325.71;86005;1297;79303;-57
2022/10/18 06:21:57;;;;;;;;;;;;;;;13.31;78.24;101326.96;85998;1301;80738;-56
2022/10/18 06:24:07;;;;;;;;;;;;;;;13.36;78.23;101328.55;86021;1292;99988;-57
2022/10/18 06:26:14;;;;;;;;;;;;;;;13.41;78.25;101328.13;86033;1294;86863;-57
2022/10/18 06:28:21;;;;;;;;;;;;;;;13.47;78.12;101326.50;86037;1297;93621;-56
2022/10/18 06:30:32;;;;;;;;;;;;;;;13.55;78.07;101322.76;86093;1293;81582;-59
2022/10/18 06:32:40;;;;;;;;;;;;;;;13.62;78.05;101325.06;86078;1299;82778;-58
2022/10/18 06:34:47;;;;;;;;;;;;;;;13.67;78.05;101321.30;86055;1283;97678;-60
2022/10/18 06:36:54;;;;;;;;;;;;;;;13.77;78.08;101326.91;86042;1292;88996;-60
2022/10/18 06:39:03;;;;;;;;;;;;;;;13.87;77.75;101328.43;86003;1294;94744;-59
2022/10/18 06:41:11;;;;;;;;;;;;;;;13.99;77.49;101327.60;86001;1292;81352;-59
2022/10/18 06:43:18;;;;;;;;;;;;;;;14.11;77.27;101327.59;86068;1291;81789;-60
2022/10/18 06:45:29;;;;;;;;;;;;;;;14.26;77.25;101331.73;86033;1292;98396;-58
2022/10/18 06:47:35;;;;;;;;;;;;;;;14.34;77.15;101329.08;85995;1294;85483;-54
2022/10/18 06:49:42;;;;;;;;;;;;;;;14.46;76.96;101328.48;86009;1298;94107;-56
2022/10/18 06:51:49;;;;;;;;;;;;;;;14.56;76.97;101329.79;85996;1294;82055;-56
2022/10/18 06:53:57;;;;;;;;;;;;;;;14.67;76.78;101330.45;86007;1294;81471;-56
2022/10/18 06:56:05;;;;;;;;;;;;;;;14.76;76.70;101331.34;86005;1294;99417;-59
2022/10/18 06:58:13;;;;;;;;;;;;;;;14.85;76.33;101327.36;86007;1293;88675;-59
2022/10/18 07:00:25;;;;;;;;;;;;;;;14.95;76.15;101329.52;85987;1294;95412;-56
2022/10/18 07:02:40;;;;;;;;;;;;;;;15.02;76.08;101327.90;85993;1299;79762;-57
2022/10/18 07:04:49;;;;;;;;;;;;;;;15.10;75.94;101326.80;86002;1285;81988;-60
2022/10/18 07:06:57;;;;;;;;;;;;;;;15.19;75.71;101326.84;86022;1294;99569;-57
2022/10/18 07:09:07;;;;;;;;;;;;;;;15.26;75.51;101329.61;86026;1297;89474;-58
2022/10/18 07:11:17;;;;;;;;;;;;;;;15.30;75.50;101328.93;86056;1297;94439;-54
2022/10/18 07:13:29;;;;;;;;;;;;;;;15.38;75.47;101325.86;86021;1297;80968;-57
2022/10/18 07:15:37;;;;;;;;;;;;;;;15.41;75.32;101328.60;86046;1294;81276;-60
2022/10/18 07:17:45;;;;;;;;;;;;;;;15.48;75.25;101331.48;85993;1291;97351;-60
2022/10/18 07:19:53;;;;;;;;;;;;;;;15.62;75.15;101331.17;86031;1301;88736;-57
2022/10/18 07:22:01;;;;;;;;;;;;;;;15.83;74.90;101329.12;86045;1294;93961;-58
2022/10/18 07:24:09;;;;;;;;;;;;;;;16.13;74.66;101332.30;85998;1299;78902;-59
2022/10/18 07:26:19;;;;;;;;;;;;;;;16.48;74.10;101329.63;86026;1299;82899;-57
2022/10/18 07:28:26;;;;;;;;;;;;;;;16.72;73.48;101325.98;85963;1291;99397;-58
2022/10/18 07:30:34;;;;;;;;;;;;;;;16.97;72.92;101326.02;86005;1294;88129;-56
2022/10/18 07:32:40;;;;;;;;;;;;;;;17.16;72.39;101327.23;85967;1291;95980;-60
2022/10/18 07:34:47;;;;;;;;;;;;;;;17.29;72.33;101323.77;85957;1299;80541;-57
2022/10/18 07:36:55;;;;;;;;;;;;;;;17.51;72.11;101319.30;86009;1291;81726;-58
2022/10/18 07:39:03;;;;;;;;;;;;;;;17.70;71.82;101317.54;86019;1294;99007;-56
2022/10/18 07:41:11;;;;;;;;;;;;;;;17.93;71.61;101316.76;85993;1297;88306;-58
2022/10/18 07:43:21;;;;;;;;;;;;;;;18.41;70.58;101316.48;85974;1292;94981;-56
2022/10/18 07:45:29;;;;;;;;;;;;;;;18.79;69.91;101314.82;85983;1292;79914;-58
2022/10/18 07:47:36;;;;;;;;;;;;;;;18.98;69.27;101310.98;86022;1294;82212;-57
2022/10/18 07:49:44;;;;;;;;;;;;;;;19.22;68.70;101309.81;85980;1293;99760;-60
2022/10/18 07:51:52;;;;;;;;;;;;;;;19.28;68.38;101312.49;85957;1299;88591;-61
2022/10/18 07:54:00;;;;;;;;;;;;;;;19.38;67.65;101312.56;85985;1299;94337;-61
2022/10/18 07:56:14;;;;;;;;;;;;;;;19.20;67.28;101309.80;85979;1297;81132;-62
2022/10/18 07:58:21;;;;;;;;;;;;;;;19.00;67.40;101316.52;85978;1294;81389;-62
2022/10/18 08:00:28;;;;;;;;;;;;;;;18.90;66.87;101316.29;85972;1291;97294;-59
2022/10/18 08:02:35;;;;;;;;;;;;;;;18.85;67.08;101316.17;85974;1285;89108;-59
2022/10/18 08:04:43;;;;;;;;;;;;;;;18.80;66.83;101311.48;85977;1291;94233;-56
2022/10/18 08:06:51;;;;;;;;;;;;;;;18.60;66.65;101304.79;85965;1294;80279;-57
2022/10/18 08:08:58;;;;;;;;;;;;;;;18.43;66.64;101312.83;85996;1291;82917;-54
2022/10/18 08:11:07;;;;;;;;;;;;;;;18.22;66.75;101309.63;85989;1294;99466;-58
2022/10/18 08:13:14;;;;;;;;;;;;;;;18.08;66.71;101304.55;85990;1297;89420;-56
2022/10/18 08:15:23;;;;;;;;;;;;;;;17.99;67.14;101300.13;86013;1293;93869;-56
2022/10/18 08:17:30;;;;;;;;;;;;;;;17.98;66.95;101296.26;86001;1294;80416;-52
2022/10/18 08:19:37;;;;;;;;;;;;;;;18.08;66.87;101298.66;86048;1297;83008;-60
2022/10/18 08:21:44;;;;;;;;;;;;;;;18.16;66.65;101295.42;86011;1284;99796;-60
2022/10/18 08:23:57;;;;;;;;;;;;;;;18.21;66.56;101291.33;86000;1298;88801;-60
2022/10/18 08:26:05;;;;;;;;;;;;;;;18.38;66.83;101287.23;85983;1294;95068;-54
2022/10/18 08:28:12;;;;;;;;;;;;;;;18.55;66.72;101286.67;85989;1294;80285;-55
2022/10/18 08:30:22;;;;;;;;;;;;;;;18.70;66.76;101281.69;86036;1294;82334;-59
2022/10/18 08:32:30;;;;;;;;;;;;;;;18.81;66.21;101277.81;85993;1297;98618;-57
2022/10/18 08:34:37;;;;;;;;;;;;;;;19.02;66.46;101275.34;85993;1297;87840;-57
2022/10/18 08:36:46;;;;;;;;;;;;;;;19.34;66.41;101276.78;85954;1297;94399;-58
2022/10/18 08:38:54;;;;;;;;;;;;;;;19.65;66.49;101273.00;85960;1300;80192;-57
2022/10/18 08:41:02;;;;;;;;;;;;;;;19.88;66.41;101272.31;86016;1293;81193;-55
2022/10/18 08:43:15;;;;;;;;;;;;;;;20.10;65.98;101272.71;85991;1299;97800;-52
2022/10/18 08:45:22;;;;;;;;;;;;;;;20.37;65.10;101272.27;85997;1292;88162;-54
2022/10/18 08:47:34;;;;;;;;;;;;;;;20.48;64.08;101272.48;85972;1299;93542;-55
2022/10/18 08:49:45;;;;;;;;;;;;;;;20.63;64.25;101274.67;85987;1292;80479;-56
2022/10/18 08:51:53;;;;;;;;;;;;;;;20.79;63.40;101273.71;86030;1292;82507;-55
2022/10/18 08:54:05;;;;;;;;;;;;;;;20.85;63.11;101276.70;86051;1293;100062;-55
2022/10/18 08:56:14;;;;;;;;;;;;;;;20.98;62.99;101273.01;86053;1293;86999;-54
2022/10/18 08:58:23;;;;;;;;;;;;;;;21.17;62.97;101270.50;86052;1294;93817;-55
2022/10/18 09:00:37;;;;;;;;;;;;;;;21.49;63.28;101270.00;85992;1292;78563;-55
2022/10/18 09:02:52;;;;;;;;;;;;;;;21.98;62.34;101266.70;85975;1294;82755;-56
2022/10/18 09:05:04;;;;;;;;;;;;;;;22.44;62.05;101271.21;86014;1292;98289;-56
2022/10/18 09:07:24;;;;;;;;;;;;;;;22.83;62.58;101270.32;86002;1292;88668;-56
2022/10/18 09:09:39;;;;;;;;;;;;;;;23.29;62.54;101271.49;86002;1294;95155;-57
2022/10/18 09:11:58;;;;;;;;;;;;;;;23.52;61.88;101263.98;85979;1294;80239;-58
2022/10/18 09:14:38;;;;;;;;;;;;;;;23.66;61.69;101263.02;86000;1297;82764;-57
2022/10/18 09:16:50;;;;;;;;;;;;;;;23.68;60.91;101257.82;85993;1293;99972;-56
2022/10/18 09:19:06;;;;;;;;;;;;;;;23.72;60.41;101260.02;86006;1294;88997;-55
2022/10/18 09:21:21;;;;;;;;;;;;;;;23.63;60.24;101259.67;86014;1300;95449;-59
2022/10/18 09:23:42;;;;;;;;;;;;;;;23.65;60.23;101258.27;86000;1292;80886;-59
2022/10/18 09:25:56;;;;;;;;;;;;;;;23.63;60.03;101254.48;86034;1292;80975;-56
2022/10/18 09:28:15;;;;;;;;;;;;;;;23.62;59.74;101251.61;86016;1292;98797;-56
2022/10/18 09:30:33;;;;;;;;;;;;;;;23.59;59.61;101251.33;86026;1292;88392;-54
2022/10/18 09:32:46;;;;;;;;;;;;;;;23.40;59.69;101254.79;86035;1293;95817;-53
2022/10/18 09:34:56;;;;;;;;;;;;;;;23.24;59.50;101247.58;85975;1292;78877;-51
2022/10/18 09:37:04;;;;;;;;;;;;;;;23.56;59.66;101238.42;85976;1294;82302;-57
2022/10/18 09:39:18;;;;;;;;;;;;;;;23.83;59.61;101231.39;85976;1300;97479;-57
2022/10/18 09:41:28;;;;;;;;;;;;;;;24.04;59.29;101230.41;86019;1281;88783;-54
2022/10/18 09:43:47;;;;;;;;;;;;;;;24.20;58.87;101221.84;86006;1293;93748;-56
2022/10/18 09:45:57;;;;;;;;;;;;;;;24.35;58.33;101221.89;85996;1294;79916;-54
2022/10/18 09:48:13;;;;;;;;;;;;;;;24.25;57.87;101222.61;86016;1294;81066;-56
2022/10/18 09:50:26;;;;;;;;;;;;;;;24.30;56.45;101221.80;86048;1300;99703;-56
2022/10/18 09:52:40;;;;;;;;;;;;;;;23.97;56.60;101214.70;86021;1294;87231;-52
2022/10/18 09:54:52;;;;;;;;;;;;;;;23.80;56.10;101211.45;86046;1294;93794;-58
2022/10/18 09:57:04;;;;;;;;;;;;;;;23.46;56.66;101210.15;86028;1292;79873;-58
2022/10/18 09:59:23;;;;;;;;;;;;;;;23.28;56.54;101207.71;86075;1285;80491;-56
2022/10/18 10:01:32;;;;;;;;;;;;;;;23.09;56.90;101206.66;86037;1292;98008;-56
2022/10/18 10:03:39;;;;;;;;;;;;;;;22.99;56.84;101208.03;86089;1294;87213;-56
2022/10/18 10:06:02;;;;;;;;;;;;;;;22.52;57.35;101203.52;86005;1297;94298;-56
2022/10/18 10:08:10;;;;;;;;;;;;;;;22.29;57.80;101193.99;86027;1297;80202;-54
2022/10/18 10:10:20;;;;;;;;;;;;;;;22.15;58.11;101190.89;86046;1294;82328;-57
2022/10/18 10:12:32;;;;;;;;;;;;;;;22.29;57.91;101189.11;86044;1292;99072;-57
2022/10/18 10:14:44;;;;;;;;;;;;;;;22.25;58.17;101189.08;86026;1293;86254;-57
2022/10/18 10:16:55;;;;;;;;;;;;;;;22.11;58.18;101182.21;85993;1300;95332;-58
2022/10/18 10:19:03;;;;;;;;;;;;;;;22.01;58.52;101182.90;86038;1297;80925;-57
2022/10/18 10:21:16;;;;;;;;;;;;;;;22.00;58.36;101179.25;86059;1294;82215;-55
2022/10/18 10:23:25;;;;;;;;;;;;;;;21.79;58.77;101174.39;86017;1291;98572;-55
2022/10/18 10:25:36;;;;;;;;;;;;;;;21.71;59.23;101173.14;86040;1293;88014;-56
2022/10/18 10:27:46;;;;;;;;;;;;;;;21.69;59.52;101170.06;86058;1292;94875;-56
2022/10/18 10:29:59;;;;;;;;;;;;;;;21.57;59.83;101167.52;86056;1297;81634;-59
2022/10/18 10:32:12;;;;;;;;;;;;;;;21.59;59.90;101167.48;86067;1294;80697;-59
2022/10/18 10:34:29;;;;;;;;;;;;;;;21.69;59.85;101165.98;86073;1294;98984;-55
2022/10/18 10:36:46;;;;;;;;;;;;;;;21.71;59.87;101164.60;86091;1286;87490;-55
2022/10/18 10:39:07;;;;;;;;;;;;;;;21.65;59.64;101158.59;85981;1297;94742;-57
2022/10/18 10:41:23;;;;;;;;;;;;;;;21.64;59.52;101152.47;85923;1298;79236;-58
2022/10/18 10:43:32;;;;;;;;;;;;;;;21.49;59.79;101149.27;86035;1299;80981;-58
2022/10/18 10:45:59;;;;;;;;;;;;;;;21.59;59.86;101150.59;86041;1297;99983;-60
2022/10/18 10:48:17;;;;;;;;;;;;;;;21.74;59.88;101144.52;86014;1297;89229;-59
2022/10/18 10:50:30;;;;;;;;;;;;;;;21.85;59.84;101137.80;86022;1291;93759;-56
2022/10/18 10:52:37;;;;;;;;;;;;;;;21.99;59.59;101132.33;86026;1297;80259;-56
2022/10/18 10:54:45;;;;;;;;;;;;;;;22.03;59.28;101134.05;86028;1297;80340;-57
2022/10/18 10:56:58;;;;;;;;;;;;;;;21.98;58.98;101135.72;86028;1297;99978;-56
2022/10/18 10:59:14;;;;;;;;;;;;;;;21.84;59.16;101134.61;86041;1297;88636;-56
2022/10/18 11:01:25;;;;;;;;;;;;;;;21.84;59.67;101134.23;86065;1297;95260;-56
2022/10/18 11:03:33;;;;;;;;;;;;;;;21.88;60.01;101129.98;86044;1294;79451;-57
2022/10/18 11:05:48;;;;;;;;;;;;;;;21.91;60.21;101132.79;86090;1297;82589;-55
2022/10/18 11:07:58;;;;;;;;;;;;;;;21.98;60.00;101128.23;86054;1294;100150;-56